sensor_id;sensor_type;location;lat;lon;timestamp;P1;durP1;ratioP1;P2;durP2;ratioP2
62338;SDS011;48368;53.406;6.214;2022-08-19T00:00:11;5.38;;;3.67;;
62338;SDS011;48368;53.406;6.214;2022-08-19T00:02:39;7.68;;;3.15;;
62338;SDS011;48368;53.406;6.214;2022-08-19T00:05:06;6.70;;;3.60;;
62338;SDS011;48368;53.406;6.214;2022-08-19T00:07:33;5.82;;;3.55;;
62338;SDS011;48368;53.406;6.214;2022-08-19T00:09:59;6.30;;;4.50;;
62338;SDS011;48368;53.406;6.214;2022-08-19T00:12:25;7.30;;;4.10;;
62338;SDS011;48368;53.406;6.214;2022-08-19T00:14:50;9.32;;;3.58;;
62338;SDS011;48368;53.406;6.214;2022-08-19T00:17:19;9.10;;;4.50;;
62338;SDS011;48368;53.406;6.214;2022-08-19T00:19:45;7.57;;;4.75;;
62338;SDS011;48368;53.406;6.214;2022-08-19T00:22:10;6.70;;;3.95;;
62338;SDS011;48368;53.406;6.214;2022-08-19T00:24:36;7.40;;;4.18;;
62338;SDS011;48368;53.406;6.214;2022-08-19T00:27:03;7.38;;;4.85;;
62338;SDS011;48368;53.406;6.214;2022-08-19T00:29:30;8.88;;;4.97;;
62338;SDS011;48368;53.406;6.214;2022-08-19T00:31:56;8.93;;;4.93;;
62338;SDS011;48368;53.406;6.214;2022-08-19T00:34:23;8.52;;;4.60;;
62338;SDS011;48368;53.406;6.214;2022-08-19T00:36:51;9.05;;;5.45;;
62338;SDS011;48368;53.406;6.214;2022-08-19T00:39:17;9.55;;;5.57;;
62338;SDS011;48368;53.406;6.214;2022-08-19T00:41:43;8.75;;;5.97;;
62338;SDS011;48368;53.406;6.214;2022-08-19T00:44:19;7.78;;;5.93;;
62338;SDS011;48368;53.406;6.214;2022-08-19T00:46:47;11.63;;;6.40;;
62338;SDS011;48368;53.406;6.214;2022-08-19T00:51:52;8.80;;;6.57;;
62338;SDS011;48368;53.406;6.214;2022-08-19T00:54:22;10.40;;;6.47;;
62338;SDS011;48368;53.406;6.214;2022-08-19T00:56:48;11.10;;;5.95;;
62338;SDS011;48368;53.406;6.214;2022-08-19T00:59:15;10.23;;;6.30;;
62338;SDS011;48368;53.406;6.214;2022-08-19T01:01:43;9.90;;;6.00;;
62338;SDS011;48368;53.406;6.214;2022-08-19T01:04:10;11.98;;;6.43;;
62338;SDS011;48368;53.406;6.214;2022-08-19T01:06:37;13.73;;;6.43;;
62338;SDS011;48368;53.406;6.214;2022-08-19T01:09:05;7.85;;;5.45;;
62338;SDS011;48368;53.406;6.214;2022-08-19T01:11:33;12.40;;;5.93;;
62338;SDS011;48368;53.406;6.214;2022-08-19T01:14:01;10.15;;;5.97;;
62338;SDS011;48368;53.406;6.214;2022-08-19T01:16:28;10.82;;;6.88;;
62338;SDS011;48368;53.406;6.214;2022-08-19T01:18:54;12.30;;;6.93;;
62338;SDS011;48368;53.406;6.214;2022-08-19T01:21:27;10.05;;;6.97;;
62338;SDS011;48368;53.406;6.214;2022-08-19T01:24:07;12.68;;;7.55;;
62338;SDS011;48368;53.406;6.214;2022-08-19T01:26:37;9.95;;;6.70;;
62338;SDS011;48368;53.406;6.214;2022-08-19T01:29:06;12.95;;;6.85;;
62338;SDS011;48368;53.406;6.214;2022-08-19T01:31:33;11.77;;;6.70;;
62338;SDS011;48368;53.406;6.214;2022-08-19T01:33:59;11.15;;;6.82;;
62338;SDS011;48368;53.406;6.214;2022-08-19T01:36:27;12.77;;;6.80;;
62338;SDS011;48368;53.406;6.214;2022-08-19T01:39:03;9.60;;;6.70;;
62338;SDS011;48368;53.406;6.214;2022-08-19T01:41:31;10.63;;;6.28;;
62338;SDS011;48368;53.406;6.214;2022-08-19T01:43:57;9.57;;;7.05;;
62338;SDS011;48368;53.406;6.214;2022-08-19T01:46:22;12.32;;;7.53;;
62338;SDS011;48368;53.406;6.214;2022-08-19T01:48:48;11.85;;;7.22;;
62338;SDS011;48368;53.406;6.214;2022-08-19T01:51:14;10.55;;;6.38;;
62338;SDS011;48368;53.406;6.214;2022-08-19T01:53:40;10.77;;;6.57;;
62338;SDS011;48368;53.406;6.214;2022-08-19T01:56:06;10.07;;;6.35;;
62338;SDS011;48368;53.406;6.214;2022-08-19T01:58:34;14.82;;;7.45;;
62338;SDS011;48368;53.406;6.214;2022-08-19T02:01:06;13.75;;;7.80;;
62338;SDS011;48368;53.406;6.214;2022-08-19T02:03:32;10.25;;;7.07;;
62338;SDS011;48368;53.406;6.214;2022-08-19T02:06:00;10.55;;;7.25;;
62338;SDS011;48368;53.406;6.214;2022-08-19T02:08:27;11.95;;;7.30;;
62338;SDS011;48368;53.406;6.214;2022-08-19T02:10:55;10.00;;;7.60;;
62338;SDS011;48368;53.406;6.214;2022-08-19T02:13:23;12.30;;;7.40;;
62338;SDS011;48368;53.406;6.214;2022-08-19T02:15:52;12.10;;;7.28;;
62338;SDS011;48368;53.406;6.214;2022-08-19T02:18:17;9.90;;;7.30;;
62338;SDS011;48368;53.406;6.214;2022-08-19T02:20:43;11.93;;;7.65;;
62338;SDS011;48368;53.406;6.214;2022-08-19T02:23:10;10.38;;;6.95;;
62338;SDS011;48368;53.406;6.214;2022-08-19T02:25:36;11.48;;;7.00;;
62338;SDS011;48368;53.406;6.214;2022-08-19T02:28:03;11.60;;;6.72;;
62338;SDS011;48368;53.406;6.214;2022-08-19T02:30:29;11.68;;;7.32;;
62338;SDS011;48368;53.406;6.214;2022-08-19T02:32:55;13.23;;;7.20;;
62338;SDS011;48368;53.406;6.214;2022-08-19T02:35:20;11.60;;;6.85;;
62338;SDS011;48368;53.406;6.214;2022-08-19T02:37:46;10.20;;;7.22;;
62338;SDS011;48368;53.406;6.214;2022-08-19T02:40:31;12.23;;;7.22;;
62338;SDS011;48368;53.406;6.214;2022-08-19T02:43:00;11.57;;;7.53;;
62338;SDS011;48368;53.406;6.214;2022-08-19T02:45:31;12.13;;;7.82;;
62338;SDS011;48368;53.406;6.214;2022-08-19T02:47:58;13.90;;;7.70;;
62338;SDS011;48368;53.406;6.214;2022-08-19T02:50:23;15.00;;;8.93;;
62338;SDS011;48368;53.406;6.214;2022-08-19T02:52:49;12.43;;;8.27;;
62338;SDS011;48368;53.406;6.214;2022-08-19T02:55:14;13.85;;;9.65;;
62338;SDS011;48368;53.406;6.214;2022-08-19T02:57:40;16.80;;;9.75;;
62338;SDS011;48368;53.406;6.214;2022-08-19T03:00:07;14.50;;;9.30;;
62338;SDS011;48368;53.406;6.214;2022-08-19T03:02:34;16.30;;;9.73;;
62338;SDS011;48368;53.406;6.214;2022-08-19T03:05:00;16.30;;;9.70;;
62338;SDS011;48368;53.406;6.214;2022-08-19T03:07:27;14.80;;;10.18;;
62338;SDS011;48368;53.406;6.214;2022-08-19T03:09:52;18.73;;;10.40;;
62338;SDS011;48368;53.406;6.214;2022-08-19T03:12:18;15.70;;;10.45;;
62338;SDS011;48368;53.406;6.214;2022-08-19T03:14:44;18.50;;;11.85;;
62338;SDS011;48368;53.406;6.214;2022-08-19T03:17:11;19.35;;;11.43;;
62338;SDS011;48368;53.406;6.214;2022-08-19T03:19:37;15.18;;;10.50;;
62338;SDS011;48368;53.406;6.214;2022-08-19T03:22:03;16.33;;;11.30;;
62338;SDS011;48368;53.406;6.214;2022-08-19T03:24:29;15.30;;;10.77;;
62338;SDS011;48368;53.406;6.214;2022-08-19T03:26:56;20.08;;;11.30;;
62338;SDS011;48368;53.406;6.214;2022-08-19T03:29:24;18.10;;;10.05;;
62338;SDS011;48368;53.406;6.214;2022-08-19T03:31:51;18.00;;;10.73;;
62338;SDS011;48368;53.406;6.214;2022-08-19T03:34:20;17.90;;;10.02;;
62338;SDS011;48368;53.406;6.214;2022-08-19T03:36:48;15.10;;;10.18;;
62338;SDS011;48368;53.406;6.214;2022-08-19T03:39:13;15.00;;;10.02;;
62338;SDS011;48368;53.406;6.214;2022-08-19T03:41:41;18.83;;;10.43;;
62338;SDS011;48368;53.406;6.214;2022-08-19T03:44:08;16.25;;;10.52;;
62338;SDS011;48368;53.406;6.214;2022-08-19T03:46:35;15.75;;;10.45;;
62338;SDS011;48368;53.406;6.214;2022-08-19T03:49:02;17.38;;;10.43;;
62338;SDS011;48368;53.406;6.214;2022-08-19T03:51:33;16.80;;;10.20;;
62338;SDS011;48368;53.406;6.214;2022-08-19T03:54:01;16.92;;;9.60;;
62338;SDS011;48368;53.406;6.214;2022-08-19T03:56:28;14.23;;;9.40;;
62338;SDS011;48368;53.406;6.214;2022-08-19T03:58:55;17.80;;;10.07;;
62338;SDS011;48368;53.406;6.214;2022-08-19T04:01:22;14.40;;;8.93;;
62338;SDS011;48368;53.406;6.214;2022-08-19T04:03:51;16.90;;;9.25;;
62338;SDS011;48368;53.406;6.214;2022-08-19T04:06:19;14.10;;;9.50;;
62338;SDS011;48368;53.406;6.214;2022-08-19T04:08:47;12.52;;;9.23;;
62338;SDS011;48368;53.406;6.214;2022-08-19T04:11:17;14.57;;;9.38;;
62338;SDS011;48368;53.406;6.214;2022-08-19T04:13:46;13.55;;;9.10;;
62338;SDS011;48368;53.406;6.214;2022-08-19T04:16:12;13.82;;;8.82;;
62338;SDS011;48368;53.406;6.214;2022-08-19T04:18:39;14.75;;;9.35;;
62338;SDS011;48368;53.406;6.214;2022-08-19T04:21:05;14.93;;;9.77;;
62338;SDS011;48368;53.406;6.214;2022-08-19T04:23:33;13.95;;;8.93;;
62338;SDS011;48368;53.406;6.214;2022-08-19T04:26:01;14.80;;;9.20;;
62338;SDS011;48368;53.406;6.214;2022-08-19T04:28:27;14.13;;;9.63;;
62338;SDS011;48368;53.406;6.214;2022-08-19T04:30:54;16.27;;;9.88;;
62338;SDS011;48368;53.406;6.214;2022-08-19T04:33:21;17.05;;;9.90;;
62338;SDS011;48368;53.406;6.214;2022-08-19T04:35:50;17.73;;;9.38;;
62338;SDS011;48368;53.406;6.214;2022-08-19T04:38:18;16.05;;;9.00;;
62338;SDS011;48368;53.406;6.214;2022-08-19T04:40:48;12.02;;;8.48;;
62338;SDS011;48368;53.406;6.214;2022-08-19T04:43:33;15.00;;;8.73;;
62338;SDS011;48368;53.406;6.214;2022-08-19T04:46:05;13.45;;;8.48;;
62338;SDS011;48368;53.406;6.214;2022-08-19T04:48:35;14.35;;;8.25;;
62338;SDS011;48368;53.406;6.214;2022-08-19T04:51:05;14.98;;;9.15;;
62338;SDS011;48368;53.406;6.214;2022-08-19T04:53:33;16.92;;;9.63;;
62338;SDS011;48368;53.406;6.214;2022-08-19T04:56:03;16.17;;;9.20;;
62338;SDS011;48368;53.406;6.214;2022-08-19T04:58:37;16.10;;;9.40;;
62338;SDS011;48368;53.406;6.214;2022-08-19T05:01:06;14.35;;;9.57;;
62338;SDS011;48368;53.406;6.214;2022-08-19T05:03:34;15.00;;;8.52;;
62338;SDS011;48368;53.406;6.214;2022-08-19T05:06:06;17.27;;;9.45;;
62338;SDS011;48368;53.406;6.214;2022-08-19T05:08:35;19.45;;;9.45;;
62338;SDS011;48368;53.406;6.214;2022-08-19T05:11:07;14.70;;;9.38;;
62338;SDS011;48368;53.406;6.214;2022-08-19T05:13:37;15.63;;;9.35;;
62338;SDS011;48368;53.406;6.214;2022-08-19T05:16:03;14.95;;;9.55;;
62338;SDS011;48368;53.406;6.214;2022-08-19T05:18:29;14.32;;;9.07;;
62338;SDS011;48368;53.406;6.214;2022-08-19T05:21:15;14.40;;;9.68;;
62338;SDS011;48368;53.406;6.214;2022-08-19T05:24:01;15.20;;;9.73;;
62338;SDS011;48368;53.406;6.214;2022-08-19T05:26:27;16.00;;;10.20;;
62338;SDS011;48368;53.406;6.214;2022-08-19T05:28:53;14.73;;;9.73;;
62338;SDS011;48368;53.406;6.214;2022-08-19T05:31:20;13.52;;;9.63;;
62338;SDS011;48368;53.406;6.214;2022-08-19T05:33:46;17.85;;;9.88;;
62338;SDS011;48368;53.406;6.214;2022-08-19T05:36:12;15.23;;;9.77;;
62338;SDS011;48368;53.406;6.214;2022-08-19T05:38:39;13.63;;;9.23;;
62338;SDS011;48368;53.406;6.214;2022-08-19T05:41:11;15.25;;;9.52;;
62338;SDS011;48368;53.406;6.214;2022-08-19T05:43:38;15.88;;;10.25;;
62338;SDS011;48368;53.406;6.214;2022-08-19T05:46:04;15.52;;;10.20;;
62338;SDS011;48368;53.406;6.214;2022-08-19T05:48:31;17.92;;;10.15;;
62338;SDS011;48368;53.406;6.214;2022-08-19T05:50:58;15.73;;;9.32;;
62338;SDS011;48368;53.406;6.214;2022-08-19T05:53:28;19.15;;;9.45;;
62338;SDS011;48368;53.406;6.214;2022-08-19T05:55:53;15.45;;;9.48;;
62338;SDS011;48368;53.406;6.214;2022-08-19T05:58:19;14.15;;;9.98;;
62338;SDS011;48368;53.406;6.214;2022-08-19T06:00:44;16.23;;;10.20;;
62338;SDS011;48368;53.406;6.214;2022-08-19T06:03:10;15.88;;;10.60;;
62338;SDS011;48368;53.406;6.214;2022-08-19T06:05:36;16.42;;;11.15;;
62338;SDS011;48368;53.406;6.214;2022-08-19T06:08:01;15.68;;;10.15;;
62338;SDS011;48368;53.406;6.214;2022-08-19T06:10:28;17.77;;;10.43;;
62338;SDS011;48368;53.406;6.214;2022-08-19T06:12:54;16.92;;;10.27;;
62338;SDS011;48368;53.406;6.214;2022-08-19T06:15:21;14.57;;;10.05;;
62338;SDS011;48368;53.406;6.214;2022-08-19T06:17:51;18.77;;;10.07;;
62338;SDS011;48368;53.406;6.214;2022-08-19T06:20:17;14.40;;;9.45;;
62338;SDS011;48368;53.406;6.214;2022-08-19T06:22:45;14.35;;;10.40;;
62338;SDS011;48368;53.406;6.214;2022-08-19T06:25:16;14.25;;;9.90;;
62338;SDS011;48368;53.406;6.214;2022-08-19T06:27:42;13.57;;;10.38;;
62338;SDS011;48368;53.406;6.214;2022-08-19T06:30:09;13.30;;;9.80;;
62338;SDS011;48368;53.406;6.214;2022-08-19T06:32:37;12.40;;;9.88;;
62338;SDS011;48368;53.406;6.214;2022-08-19T06:35:03;13.32;;;9.13;;
62338;SDS011;48368;53.406;6.214;2022-08-19T06:37:29;13.88;;;10.23;;
62338;SDS011;48368;53.406;6.214;2022-08-19T06:39:55;15.07;;;9.85;;
62338;SDS011;48368;53.406;6.214;2022-08-19T06:42:21;13.77;;;9.20;;
62338;SDS011;48368;53.406;6.214;2022-08-19T06:44:47;12.90;;;9.95;;
62338;SDS011;48368;53.406;6.214;2022-08-19T06:47:14;16.13;;;10.85;;
62338;SDS011;48368;53.406;6.214;2022-08-19T06:49:42;14.25;;;9.52;;
62338;SDS011;48368;53.406;6.214;2022-08-19T06:52:08;13.75;;;9.85;;
62338;SDS011;48368;53.406;6.214;2022-08-19T06:54:38;14.60;;;9.68;;
62338;SDS011;48368;53.406;6.214;2022-08-19T06:57:06;11.02;;;8.60;;
62338;SDS011;48368;53.406;6.214;2022-08-19T06:59:34;13.57;;;9.52;;
62338;SDS011;48368;53.406;6.214;2022-08-19T07:02:01;12.55;;;9.57;;
62338;SDS011;48368;53.406;6.214;2022-08-19T07:04:30;12.48;;;9.35;;
62338;SDS011;48368;53.406;6.214;2022-08-19T07:07:10;11.85;;;9.85;;
62338;SDS011;48368;53.406;6.214;2022-08-19T07:09:41;13.57;;;9.80;;
62338;SDS011;48368;53.406;6.214;2022-08-19T07:12:10;12.82;;;9.73;;
62338;SDS011;48368;53.406;6.214;2022-08-19T07:14:39;15.32;;;10.23;;
62338;SDS011;48368;53.406;6.214;2022-08-19T07:17:06;16.02;;;10.20;;
62338;SDS011;48368;53.406;6.214;2022-08-19T07:19:33;12.43;;;9.23;;
62338;SDS011;48368;53.406;6.214;2022-08-19T07:22:00;15.30;;;9.77;;
62338;SDS011;48368;53.406;6.214;2022-08-19T07:24:28;16.55;;;10.23;;
62338;SDS011;48368;53.406;6.214;2022-08-19T07:26:57;13.63;;;10.00;;
62338;SDS011;48368;53.406;6.214;2022-08-19T07:29:34;14.88;;;9.70;;
62338;SDS011;48368;53.406;6.214;2022-08-19T07:32:02;13.77;;;9.93;;
62338;SDS011;48368;53.406;6.214;2022-08-19T07:34:29;12.70;;;10.40;;
62338;SDS011;48368;53.406;6.214;2022-08-19T07:36:55;14.38;;;10.13;;
62338;SDS011;48368;53.406;6.214;2022-08-19T07:39:27;12.45;;;10.73;;
62338;SDS011;48368;53.406;6.214;2022-08-19T07:41:55;15.80;;;10.27;;
62338;SDS011;48368;53.406;6.214;2022-08-19T07:44:22;12.65;;;9.52;;
62338;SDS011;48368;53.406;6.214;2022-08-19T07:46:51;12.52;;;9.93;;
62338;SDS011;48368;53.406;6.214;2022-08-19T07:49:19;12.20;;;10.32;;
62338;SDS011;48368;53.406;6.214;2022-08-19T07:51:50;13.60;;;10.32;;
62338;SDS011;48368;53.406;6.214;2022-08-19T07:54:17;14.63;;;10.85;;
62338;SDS011;48368;53.406;6.214;2022-08-19T07:56:44;13.57;;;10.70;;
62338;SDS011;48368;53.406;6.214;2022-08-19T07:59:10;13.65;;;10.75;;
62338;SDS011;48368;53.406;6.214;2022-08-19T08:01:37;12.95;;;10.02;;
62338;SDS011;48368;53.406;6.214;2022-08-19T08:04:06;14.95;;;10.93;;
62338;SDS011;48368;53.406;6.214;2022-08-19T08:06:51;14.43;;;10.48;;
62338;SDS011;48368;53.406;6.214;2022-08-19T08:09:37;13.32;;;10.43;;
62338;SDS011;48368;53.406;6.214;2022-08-19T08:12:07;11.80;;;10.02;;
62338;SDS011;48368;53.406;6.214;2022-08-19T08:14:37;11.50;;;9.68;;
62338;SDS011;48368;53.406;6.214;2022-08-19T08:17:06;12.73;;;9.82;;
62338;SDS011;48368;53.406;6.214;2022-08-19T08:19:33;16.30;;;10.50;;
62338;SDS011;48368;53.406;6.214;2022-08-19T08:21:59;13.80;;;10.77;;
62338;SDS011;48368;53.406;6.214;2022-08-19T08:24:26;13.93;;;10.48;;
62338;SDS011;48368;53.406;6.214;2022-08-19T08:26:57;12.48;;;9.90;;
62338;SDS011;48368;53.406;6.214;2022-08-19T08:29:24;12.02;;;10.73;;
62338;SDS011;48368;53.406;6.214;2022-08-19T08:31:59;13.20;;;11.02;;
62338;SDS011;48368;53.406;6.214;2022-08-19T08:34:28;14.55;;;10.77;;
62338;SDS011;48368;53.406;6.214;2022-08-19T08:36:53;12.70;;;10.85;;
62338;SDS011;48368;53.406;6.214;2022-08-19T08:39:19;13.88;;;10.68;;
62338;SDS011;48368;53.406;6.214;2022-08-19T08:41:58;12.32;;;10.88;;
62338;SDS011;48368;53.406;6.214;2022-08-19T08:44:47;15.88;;;12.27;;
62338;SDS011;48368;53.406;6.214;2022-08-19T08:47:16;17.50;;;12.50;;
62338;SDS011;48368;53.406;6.214;2022-08-19T08:49:48;14.43;;;12.00;;
62338;SDS011;48368;53.406;6.214;2022-08-19T08:52:30;13.75;;;11.05;;
62338;SDS011;48368;53.406;6.214;2022-08-19T08:55:04;14.20;;;11.00;;
62338;SDS011;48368;53.406;6.214;2022-08-19T09:03:34;13.30;;;11.25;;
62338;SDS011;48368;53.406;6.214;2022-08-19T09:06:13;14.52;;;11.18;;
62338;SDS011;48368;53.406;6.214;2022-08-19T09:09:04;16.70;;;11.88;;
62338;SDS011;48368;53.406;6.214;2022-08-19T09:16:56;14.55;;;12.90;;
62338;SDS011;48368;53.406;6.214;2022-08-19T09:19:23;13.73;;;12.25;;
62338;SDS011;48368;53.406;6.214;2022-08-19T09:21:48;16.17;;;13.05;;
62338;SDS011;48368;53.406;6.214;2022-08-19T09:24:15;13.23;;;11.82;;
62338;SDS011;48368;53.406;6.214;2022-08-19T09:26:41;12.45;;;10.68;;
62338;SDS011;48368;53.406;6.214;2022-08-19T09:29:08;15.63;;;12.70;;
62338;SDS011;48368;53.406;6.214;2022-08-19T09:31:35;13.80;;;12.32;;
62338;SDS011;48368;53.406;6.214;2022-08-19T09:34:01;16.63;;;13.93;;
62338;SDS011;48368;53.406;6.214;2022-08-19T09:36:30;14.27;;;12.88;;
62338;SDS011;48368;53.406;6.214;2022-08-19T09:39:01;16.40;;;13.23;;
62338;SDS011;48368;53.406;6.214;2022-08-19T09:41:30;15.05;;;13.45;;
62338;SDS011;48368;53.406;6.214;2022-08-19T09:43:57;17.63;;;14.35;;
62338;SDS011;48368;53.406;6.214;2022-08-19T09:46:24;16.35;;;13.95;;
62338;SDS011;48368;53.406;6.214;2022-08-19T09:48:57;14.98;;;13.38;;
62338;SDS011;48368;53.406;6.214;2022-08-19T09:51:25;13.95;;;12.23;;
62338;SDS011;48368;53.406;6.214;2022-08-19T09:53:53;14.70;;;13.20;;
62338;SDS011;48368;53.406;6.214;2022-08-19T09:56:23;16.05;;;13.95;;
62338;SDS011;48368;53.406;6.214;2022-08-19T09:58:52;15.63;;;14.00;;
62338;SDS011;48368;53.406;6.214;2022-08-19T10:01:19;15.70;;;13.95;;
62338;SDS011;48368;53.406;6.214;2022-08-19T10:03:48;17.23;;;15.40;;
62338;SDS011;48368;53.406;6.214;2022-08-19T10:06:17;14.32;;;12.85;;
62338;SDS011;48368;53.406;6.214;2022-08-19T10:08:44;16.25;;;14.55;;
62338;SDS011;48368;53.406;6.214;2022-08-19T10:11:10;16.13;;;14.45;;
62338;SDS011;48368;53.406;6.214;2022-08-19T10:13:41;16.77;;;15.10;;
62338;SDS011;48368;53.406;6.214;2022-08-19T10:16:09;18.92;;;16.92;;
62338;SDS011;48368;53.406;6.214;2022-08-19T10:18:37;20.38;;;18.25;;
62338;SDS011;48368;53.406;6.214;2022-08-19T10:21:04;20.35;;;17.30;;
62338;SDS011;48368;53.406;6.214;2022-08-19T10:23:42;19.52;;;15.75;;
62338;SDS011;48368;53.406;6.214;2022-08-19T10:26:14;19.25;;;17.30;;
62338;SDS011;48368;53.406;6.214;2022-08-19T10:28:45;19.80;;;17.42;;
62338;SDS011;48368;53.406;6.214;2022-08-19T10:31:15;19.35;;;17.35;;
62338;SDS011;48368;53.406;6.214;2022-08-19T10:33:45;20.08;;;18.08;;
62338;SDS011;48368;53.406;6.214;2022-08-19T10:36:14;19.98;;;18.00;;
62338;SDS011;48368;53.406;6.214;2022-08-19T10:38:45;21.50;;;19.23;;
62338;SDS011;48368;53.406;6.214;2022-08-19T10:41:31;19.50;;;17.60;;
62338;SDS011;48368;53.406;6.214;2022-08-19T10:44:03;22.40;;;18.35;;
62338;SDS011;48368;53.406;6.214;2022-08-19T10:46:31;20.95;;;17.48;;
62338;SDS011;48368;53.406;6.214;2022-08-19T10:48:58;17.95;;;16.05;;
62338;SDS011;48368;53.406;6.214;2022-08-19T10:51:31;18.48;;;16.67;;
62338;SDS011;48368;53.406;6.214;2022-08-19T10:54:16;18.20;;;16.42;;
62338;SDS011;48368;53.406;6.214;2022-08-19T10:56:42;18.02;;;16.13;;
62338;SDS011;48368;53.406;6.214;2022-08-19T10:59:27;20.02;;;18.02;;
62338;SDS011;48368;53.406;6.214;2022-08-19T11:01:58;18.67;;;16.42;;
62338;SDS011;48368;53.406;6.214;2022-08-19T11:04:28;17.92;;;16.02;;
62338;SDS011;48368;53.406;6.214;2022-08-19T11:06:53;17.83;;;15.65;;
62338;SDS011;48368;53.406;6.214;2022-08-19T11:09:20;21.52;;;16.10;;
62338;SDS011;48368;53.406;6.214;2022-08-19T11:11:54;18.52;;;16.38;;
62338;SDS011;48368;53.406;6.214;2022-08-19T11:14:21;17.25;;;15.48;;
62338;SDS011;48368;53.406;6.214;2022-08-19T11:16:51;17.98;;;15.68;;
62338;SDS011;48368;53.406;6.214;2022-08-19T11:19:20;19.55;;;13.95;;
62338;SDS011;48368;53.406;6.214;2022-08-19T11:21:48;17.58;;;14.25;;
62338;SDS011;48368;53.406;6.214;2022-08-19T11:24:19;16.45;;;14.18;;
62338;SDS011;48368;53.406;6.214;2022-08-19T11:26:50;18.58;;;14.88;;
62338;SDS011;48368;53.406;6.214;2022-08-19T11:29:21;15.27;;;13.68;;
62338;SDS011;48368;53.406;6.214;2022-08-19T11:31:50;18.30;;;15.23;;
62338;SDS011;48368;53.406;6.214;2022-08-19T11:34:22;16.98;;;14.25;;
62338;SDS011;48368;53.406;6.214;2022-08-19T11:36:54;18.13;;;15.30;;
62338;SDS011;48368;53.406;6.214;2022-08-19T11:39:25;15.27;;;13.68;;
62338;SDS011;48368;53.406;6.214;2022-08-19T11:41:52;14.55;;;12.75;;
62338;SDS011;48368;53.406;6.214;2022-08-19T11:44:18;19.42;;;13.02;;
62338;SDS011;48368;53.406;6.214;2022-08-19T11:46:44;17.88;;;12.18;;
62338;SDS011;48368;53.406;6.214;2022-08-19T11:49:16;13.73;;;10.77;;
62338;SDS011;48368;53.406;6.214;2022-08-19T11:51:49;13.63;;;10.35;;
62338;SDS011;48368;53.406;6.214;2022-08-19T11:54:24;14.60;;;10.27;;
62338;SDS011;48368;53.406;6.214;2022-08-19T11:56:52;17.33;;;10.20;;
62338;SDS011;48368;53.406;6.214;2022-08-19T11:59:18;18.40;;;9.85;;
62338;SDS011;48368;53.406;6.214;2022-08-19T12:01:44;18.58;;;10.05;;
62338;SDS011;48368;53.406;6.214;2022-08-19T12:04:10;18.88;;;10.73;;
62338;SDS011;48368;53.406;6.214;2022-08-19T12:06:37;21.40;;;12.50;;
62338;SDS011;48368;53.406;6.214;2022-08-19T12:09:05;21.33;;;14.18;;
62338;SDS011;48368;53.406;6.214;2022-08-19T12:11:37;28.80;;;15.75;;
62338;SDS011;48368;53.406;6.214;2022-08-19T12:14:19;27.17;;;14.48;;
62338;SDS011;48368;53.406;6.214;2022-08-19T12:16:55;24.23;;;13.40;;
62338;SDS011;48368;53.406;6.214;2022-08-19T12:19:21;21.10;;;14.18;;
62338;SDS011;48368;53.406;6.214;2022-08-19T12:21:47;19.83;;;13.18;;
62338;SDS011;48368;53.406;6.214;2022-08-19T12:24:12;19.15;;;13.65;;
62338;SDS011;48368;53.406;6.214;2022-08-19T12:26:51;18.65;;;12.90;;
62338;SDS011;48368;53.406;6.214;2022-08-19T12:29:22;14.63;;;10.95;;
62338;SDS011;48368;53.406;6.214;2022-08-19T12:31:54;16.67;;;11.60;;
62338;SDS011;48368;53.406;6.214;2022-08-19T12:34:29;16.52;;;10.95;;
62338;SDS011;48368;53.406;6.214;2022-08-19T12:37:00;14.98;;;10.93;;
62338;SDS011;48368;53.406;6.214;2022-08-19T12:39:27;16.30;;;10.60;;
62338;SDS011;48368;53.406;6.214;2022-08-19T12:41:55;14.75;;;11.55;;
62338;SDS011;48368;53.406;6.214;2022-08-19T12:44:21;13.32;;;10.70;;
62338;SDS011;48368;53.406;6.214;2022-08-19T12:46:48;14.85;;;10.82;;
62338;SDS011;48368;53.406;6.214;2022-08-19T12:49:14;11.50;;;8.98;;
62338;SDS011;48368;53.406;6.214;2022-08-19T12:51:40;16.52;;;9.07;;
62338;SDS011;48368;53.406;6.214;2022-08-19T12:54:07;9.40;;;8.15;;
62338;SDS011;48368;53.406;6.214;2022-08-19T12:56:33;10.15;;;8.15;;
62338;SDS011;48368;53.406;6.214;2022-08-19T12:59:02;9.07;;;7.20;;
62338;SDS011;48368;53.406;6.214;2022-08-19T13:01:32;9.13;;;6.70;;
62338;SDS011;48368;53.406;6.214;2022-08-19T13:03:58;10.63;;;8.07;;
62338;SDS011;48368;53.406;6.214;2022-08-19T13:06:24;11.95;;;8.10;;
62338;SDS011;48368;53.406;6.214;2022-08-19T13:08:51;9.57;;;7.15;;
62338;SDS011;48368;53.406;6.214;2022-08-19T13:11:18;10.98;;;6.88;;
62338;SDS011;48368;53.406;6.214;2022-08-19T13:13:46;8.93;;;6.80;;
62338;SDS011;48368;53.406;6.214;2022-08-19T13:16:15;8.57;;;6.22;;
62338;SDS011;48368;53.406;6.214;2022-08-19T13:18:42;10.52;;;7.55;;
62338;SDS011;48368;53.406;6.214;2022-08-19T13:21:10;11.55;;;8.10;;
62338;SDS011;48368;53.406;6.214;2022-08-19T13:23:39;14.73;;;8.65;;
62338;SDS011;48368;53.406;6.214;2022-08-19T13:26:06;8.80;;;6.63;;
62338;SDS011;48368;53.406;6.214;2022-08-19T13:28:34;11.77;;;7.25;;
62338;SDS011;48368;53.406;6.214;2022-08-19T13:31:19;9.65;;;6.28;;
62338;SDS011;48368;53.406;6.214;2022-08-19T13:34:04;11.57;;;7.80;;
62338;SDS011;48368;53.406;6.214;2022-08-19T13:36:34;13.80;;;9.45;;
62338;SDS011;48368;53.406;6.214;2022-08-19T13:39:01;12.80;;;9.90;;
62338;SDS011;48368;53.406;6.214;2022-08-19T13:41:27;13.75;;;10.45;;
62338;SDS011;48368;53.406;6.214;2022-08-19T13:43:53;16.30;;;11.38;;
62338;SDS011;48368;53.406;6.214;2022-08-19T13:46:19;21.85;;;11.48;;
62338;SDS011;48368;53.406;6.214;2022-08-19T13:48:46;18.90;;;12.05;;
62338;SDS011;48368;53.406;6.214;2022-08-19T13:51:13;20.15;;;11.82;;
62338;SDS011;48368;53.406;6.214;2022-08-19T13:53:41;18.02;;;11.48;;
62338;SDS011;48368;53.406;6.214;2022-08-19T13:56:08;15.07;;;10.27;;
62338;SDS011;48368;53.406;6.214;2022-08-19T13:58:36;17.30;;;10.85;;
62338;SDS011;48368;53.406;6.214;2022-08-19T14:01:02;15.82;;;10.70;;
62338;SDS011;48368;53.406;6.214;2022-08-19T14:03:29;15.50;;;10.63;;
62338;SDS011;48368;53.406;6.214;2022-08-19T14:05:55;13.52;;;10.63;;
62338;SDS011;48368;53.406;6.214;2022-08-19T14:08:21;17.33;;;10.35;;
62338;SDS011;48368;53.406;6.214;2022-08-19T14:10:47;13.20;;;10.07;;
62338;SDS011;48368;53.406;6.214;2022-08-19T14:13:18;15.38;;;9.82;;
62338;SDS011;48368;53.406;6.214;2022-08-19T14:15:45;16.42;;;8.75;;
62338;SDS011;48368;53.406;6.214;2022-08-19T14:18:12;23.25;;;9.90;;
62338;SDS011;48368;53.406;6.214;2022-08-19T14:20:39;13.10;;;8.75;;
62338;SDS011;48368;53.406;6.214;2022-08-19T14:23:05;15.48;;;9.40;;
62338;SDS011;48368;53.406;6.214;2022-08-19T14:25:31;14.38;;;9.52;;
62338;SDS011;48368;53.406;6.214;2022-08-19T14:27:57;11.27;;;8.57;;
62338;SDS011;48368;53.406;6.214;2022-08-19T14:30:27;15.18;;;9.45;;
62338;SDS011;48368;53.406;6.214;2022-08-19T14:32:55;15.85;;;10.00;;
62338;SDS011;48368;53.406;6.214;2022-08-19T14:35:23;13.65;;;9.63;;
62338;SDS011;48368;53.406;6.214;2022-08-19T14:37:50;13.93;;;9.77;;
62338;SDS011;48368;53.406;6.214;2022-08-19T14:40:18;15.35;;;9.57;;
62338;SDS011;48368;53.406;6.214;2022-08-19T14:42:46;16.13;;;9.82;;
62338;SDS011;48368;53.406;6.214;2022-08-19T14:45:13;17.08;;;10.70;;
62338;SDS011;48368;53.406;6.214;2022-08-19T14:47:39;14.23;;;10.38;;
62338;SDS011;48368;53.406;6.214;2022-08-19T14:50:06;15.57;;;9.23;;